Impacts TAF Board
For situational awareness. Not to be used for flight planning purposes.
IDs:

KCAR - Caribou Muni, ME, US

Issued at 1720 UTC 01 Feb 2023
Updated at 2210 UTC 01 Feb 2023
Potential Impact None Slight Moderate High
Time2154Z 01/23Z 02/00Z 02/01Z 02/02Z 02/03Z 02/04Z 02/05Z 02/06Z 02/07Z 02/08Z 02/09Z 02/10Z 02/11Z>>
Type OBS PRVL PRVL PRVL PRVL PRVL PRVL PRVL PRVL PRVL PRVL PRVL PRVL PRVL
VIS 10 >6 >6 >6 >6 >6 >6 >6 >6 >6 >6 >6 >6 >6
CIG -- -- -- -- -- -- -- -- -- -- -- -- -- --
Cover CLR FEW FEW FEW FEW FEW SCT SCT SCT SCT SCT SCT SCT SCT
FltCat VFR VFR VFR VFR VFR VFR VFR VFR VFR VFR VFR VFR VFR VFR
WX -- -- -- -- -- -- -- -- -- -- -- -- -- --
WDir 100 200 200 200 200 200 210 210 210 210 210 210 210 210
WSpd 4 4 4 4 4 4 3 3 3 3 3 3 3 3
WGst -- -- -- -- -- -- -- -- -- -- -- -- -- --
WSHgt -- -- -- -- -- -- -- -- -- -- -- -- -- --
WSDir -- -- -- -- -- -- -- -- -- -- -- -- -- --
WSSpd -- -- -- -- -- -- -- -- -- -- -- -- -- --

NOTE: LAMP data beyond the time of the TAF data is denoted as LAMP in Type and colored magenta.

Raw TAF
KCAR 011720Z 0118/0218 20004KT P6SM FEW200
  FM020400 21003KT P6SM SCT050
  FM021300 21006KT P6SM BKN100


Raw METAR
KCAR 012154Z AUTO 10004KT 10SM CLR M12/M18 A3008 RMK AO2 SLP209 T11221183
KCAR 012054Z AUTO 17003KT 10SM CLR M11/M18 A3008 RMK AO2 SLP208 T11111178 56011
KCAR 011954Z AUTO 11004KT 10SM CLR M11/M18 A3009 RMK AO2 SLP210 T11061178

METAR Board
Radar Display
Forecast Discussion

For situational awareness. Not to be used for flight planning purposes.